Time;durP1;ratioP1;P1;durP2;ratioP2;P2;SDS_P1;SDS_P2;PMS_P1;PMS_P2;Temp;Humidity;BMP_temperature;BMP_pressure;BME280_temperature;BME280_humidity;BME280_pressure;Samples;Min_cycle;Max_cycle;Signal;HPM_P1;HPM_P2
2021/09/09 00:00:26;;;;;;;36.35;30.08;;;19.80;99.90;;;;;;5017922;28;25081;-72
2021/09/09 00:02:52;;;;;;;40.05;31.33;;;19.80;99.90;;;;;;5010704;28;25078;-72
2021/09/09 00:05:19;;;;;;;35.05;30.95;;;19.80;99.90;;;;;;5013810;28;25080;-71
2021/09/09 00:07:45;;;;;;;40.70;31.55;;;19.70;99.90;;;;;;5013800;28;25076;-72
2021/09/09 00:10:12;;;;;;;37.92;29.75;;;19.80;99.90;;;;;;5021185;28;25074;-73
2021/09/09 00:12:48;;;;;;;39.60;31.73;;;19.70;99.90;;;;;;5025503;28;25062;-73
2021/09/09 00:15:14;;;;;;;40.58;32.45;;;19.50;99.90;;;;;;5018729;28;25081;-73
2021/09/09 00:17:41;;;;;;;36.83;30.20;;;19.50;99.90;;;;;;5018590;28;25061;-74
2021/09/09 00:20:09;;;;;;;39.70;31.33;;;19.40;99.90;;;;;;5021042;28;25060;-74
2021/09/09 00:22:36;;;;;;;38.30;30.52;;;19.30;99.90;;;;;;5024369;28;25066;-73
2021/09/09 00:25:04;;;;;;;38.05;29.90;;;19.30;99.90;;;;;;5018393;28;25067;-74
2021/09/09 00:27:31;;;;;;;39.60;29.85;;;19.40;99.90;;;;;;5023947;28;25109;-74
2021/09/09 00:29:56;;;;;;;41.88;31.52;;;19.40;99.90;;;;;;5024819;28;25065;-73
2021/09/09 00:32:22;;;;;;;34.97;29.92;;;19.40;99.90;;;;;;5017474;28;25056;-73
2021/09/09 00:34:49;;;;;;;38.47;31.42;;;19.30;99.90;;;;;;5027696;28;25086;-74
2021/09/09 00:37:21;;;;;;;36.78;30.40;;;19.20;99.90;;;;;;5019444;28;25080;-73
2021/09/09 00:39:48;;;;;;;37.20;30.83;;;19.20;99.90;;;;;;5015586;28;25074;-72
2021/09/09 00:42:14;;;;;;;44.78;31.65;;;19.20;99.90;;;;;;5013591;28;25157;-72
2021/09/09 00:44:40;;;;;;;37.67;31.30;;;19.20;99.90;;;;;;5016805;28;25141;-73
2021/09/09 00:47:11;;;;;;;35.00;30.63;;;19.10;99.90;;;;;;5015465;28;25091;-72
2021/09/09 00:49:39;;;;;;;37.50;29.40;;;19.00;99.90;;;;;;5013276;28;25087;-72
2021/09/09 00:52:06;;;;;;;43.17;31.50;;;18.90;99.90;;;;;;5009213;28;25105;-72
2021/09/09 00:54:32;;;;;;;38.60;30.95;;;18.80;99.90;;;;;;5016848;28;25059;-71
2021/09/09 00:56:58;;;;;;;36.97;30.13;;;18.90;99.90;;;;;;5012848;28;25045;-73
2021/09/09 00:59:25;;;;;;;37.08;28.98;;;18.90;99.90;;;;;;5024181;28;25096;-72
2021/09/09 01:01:52;;;;;;;37.85;30.40;;;19.00;99.90;;;;;;5013069;28;25113;-74
2021/09/09 01:04:20;;;;;;;39.92;30.95;;;19.00;99.90;;;;;;5013836;28;25130;-73
2021/09/09 01:06:47;;;;;;;36.92;28.30;;;19.00;99.90;;;;;;5017408;28;25056;-72
2021/09/09 01:09:13;;;;;;;32.05;28.50;;;19.00;99.90;;;;;;5019693;28;25123;-72
2021/09/09 01:11:38;;;;;;;36.10;30.58;;;19.00;99.90;;;;;;5018615;28;25077;-72
2021/09/09 01:14:12;;;;;;;35.95;29.80;;;19.00;99.90;;;;;;5017742;28;25061;-72
2021/09/09 01:16:39;;;;;;;35.10;30.40;;;18.80;99.90;;;;;;5020176;28;25108;-72
2021/09/09 01:19:06;;;;;;;34.90;29.33;;;18.70;99.90;;;;;;5021917;28;25060;-73
2021/09/09 01:21:33;;;;;;;37.45;30.50;;;18.70;99.90;;;;;;5018017;28;25087;-72
2021/09/09 01:23:59;;;;;;;38.85;30.73;;;18.70;99.90;;;;;;5006239;28;25112;-72
2021/09/09 01:26:27;;;;;;;40.20;30.60;;;18.70;99.90;;;;;;5006293;28;25071;-71
2021/09/09 01:28:57;;;;;;;34.30;29.45;;;18.50;99.90;;;;;;5006679;28;25082;-72
2021/09/09 01:31:23;;;;;;;37.20;29.58;;;18.50;99.90;;;;;;5007611;28;25057;-72
2021/09/09 01:33:55;;;;;;;39.28;31.55;;;18.50;99.90;;;;;;5006520;28;25157;-72
2021/09/09 01:36:22;;;;;;;34.30;30.20;;;18.60;99.90;;;;;;5015251;28;25062;-72
2021/09/09 01:38:48;;;;;;;36.58;29.23;;;18.50;99.90;;;;;;5022272;28;25074;-72
2021/09/09 01:41:14;;;;;;;43.63;30.20;;;18.50;99.90;;;;;;5017206;28;25056;-73
2021/09/09 01:43:39;;;;;;;38.30;31.08;;;18.40;99.90;;;;;;5009252;28;25110;-73
2021/09/09 01:46:05;;;;;;;42.20;30.23;;;18.30;99.90;;;;;;5007171;28;25068;-71
2021/09/09 01:48:30;;;;;;;36.13;29.65;;;18.30;99.90;;;;;;5008459;28;25068;-72
2021/09/09 01:50:56;;;;;;;36.47;29.98;;;18.40;99.90;;;;;;5011120;28;25146;-72
2021/09/09 01:53:22;;;;;;;33.95;28.25;;;18.50;99.90;;;;;;5009864;28;25060;-73
2021/09/09 01:55:47;;;;;;;38.65;26.23;;;18.50;99.90;;;;;;5012457;28;25133;-71
2021/09/09 01:58:13;;;;;;;36.70;28.48;;;18.50;99.90;;;;;;5010985;28;25055;-72
2021/09/09 02:00:39;;;;;;;34.90;27.63;;;18.50;99.90;;;;;;5011446;28;25086;-72
2021/09/09 02:03:04;;;;;;;36.25;29.25;;;18.50;99.90;;;;;;5010775;28;25058;-72
2021/09/09 02:05:30;;;;;;;29.88;26.60;;;18.50;99.90;;;;;;5012893;28;25181;-73
2021/09/09 02:07:55;;;;;;;33.88;27.60;;;18.40;99.90;;;;;;5005804;28;25084;-74
2021/09/09 02:10:21;;;;;;;37.50;28.50;;;18.40;99.90;;;;;;5007445;28;25069;-73
2021/09/09 02:12:50;;;;;;;33.58;27.42;;;18.40;99.90;;;;;;5007461;28;25079;-72
2021/09/09 02:15:17;;;;;;;34.40;27.20;;;18.40;99.90;;;;;;5005279;28;25051;-73
2021/09/09 02:17:43;;;;;;;35.42;27.10;;;18.40;99.90;;;;;;5005402;28;25153;-72
2021/09/09 02:20:10;;;;;;;32.83;26.90;;;18.50;99.90;;;;;;5004084;28;25059;-70
2021/09/09 02:22:36;;;;;;;34.67;26.13;;;18.40;99.90;;;;;;5002478;28;25082;-72
2021/09/09 02:25:02;;;;;;;35.47;28.42;;;18.40;99.90;;;;;;5003892;28;25075;-72
2021/09/09 02:27:27;;;;;;;37.40;28.02;;;18.30;99.90;;;;;;5003579;28;25063;-72
2021/09/09 02:29:53;;;;;;;31.48;27.30;;;18.40;99.90;;;;;;5005987;28;25075;-72
2021/09/09 02:32:19;;;;;;;34.40;27.90;;;18.30;99.90;;;;;;5004518;28;25069;-72
2021/09/09 02:34:45;;;;;;;32.17;26.83;;;18.30;99.90;;;;;;5008100;28;25081;-73
2021/09/09 02:37:10;;;;;;;34.70;27.08;;;18.30;99.90;;;;;;5006185;28;25058;-72
2021/09/09 02:39:40;;;;;;;31.70;25.73;;;18.30;99.90;;;;;;5006436;28;25072;-72
2021/09/09 02:42:06;;;;;;;34.63;27.17;;;18.40;99.90;;;;;;5000710;28;25063;-72
2021/09/09 02:44:32;;;;;;;32.28;25.98;;;18.40;99.90;;;;;;5006488;28;25070;-72
2021/09/09 02:46:57;;;;;;;30.90;27.15;;;18.30;99.90;;;;;;5004522;28;25050;-73
2021/09/09 02:49:23;;;;;;;34.58;27.25;;;18.40;99.90;;;;;;5006664;28;25099;-72
2021/09/09 02:51:48;;;;;;;34.50;26.67;;;18.40;99.90;;;;;;5006563;28;25090;-73
2021/09/09 02:54:14;;;;;;;31.30;26.50;;;18.30;99.90;;;;;;5005402;28;25160;-71
2021/09/09 02:56:40;;;;;;;32.35;26.10;;;18.30;99.90;;;;;;5005934;28;25062;-71
2021/09/09 02:59:06;;;;;;;34.88;26.70;;;18.20;99.90;;;;;;5006386;28;25107;-70
2021/09/09 03:01:32;;;;;;;36.47;28.08;;;18.20;99.90;;;;;;5005828;28;25161;-73
2021/09/09 03:03:57;;;;;;;31.35;26.40;;;18.30;99.90;;;;;;5002990;28;25072;-73
2021/09/09 03:06:23;;;;;;;35.80;26.35;;;18.30;99.90;;;;;;5002651;28;25080;-72
2021/09/09 03:08:48;;;;;;;35.63;27.00;;;18.30;99.90;;;;;;5006749;28;25120;-72
2021/09/09 03:11:14;;;;;;;35.90;25.73;;;18.20;99.90;;;;;;5009051;28;25116;-71
2021/09/09 03:13:40;;;;;;;33.65;26.00;;;18.20;99.90;;;;;;5011082;28;25062;-73
2021/09/09 03:16:05;;;;;;;38.53;27.30;;;18.20;99.90;;;;;;5011088;28;25048;-71
2021/09/09 03:18:32;;;;;;;38.47;27.38;;;18.10;99.90;;;;;;5003067;28;25062;-71
2021/09/09 03:20:58;;;;;;;30.60;25.02;;;18.00;99.90;;;;;;5010353;28;25060;-72
2021/09/09 03:23:24;;;;;;;38.22;26.30;;;17.90;99.90;;;;;;5005474;28;25131;-70
2021/09/09 03:25:50;;;;;;;30.48;26.23;;;18.00;99.90;;;;;;5003136;28;25055;-71
2021/09/09 03:28:15;;;;;;;31.80;25.13;;;18.00;99.90;;;;;;5002374;28;25067;-71
2021/09/09 03:30:41;;;;;;;29.33;25.88;;;18.00;99.90;;;;;;5002767;28;25013;-72
2021/09/09 03:33:06;;;;;;;33.83;25.45;;;18.00;99.90;;;;;;5010986;28;25147;-72
2021/09/09 03:35:32;;;;;;;33.45;26.33;;;18.00;99.90;;;;;;5009478;28;25060;-71
2021/09/09 03:37:57;;;;;;;34.05;26.05;;;17.90;99.90;;;;;;5009299;28;25087;-72
2021/09/09 03:40:23;;;;;;;31.02;24.85;;;17.80;99.90;;;;;;5005014;28;25091;-70
2021/09/09 03:42:49;;;;;;;31.63;26.17;;;17.80;99.90;;;;;;5010857;28;25053;-73
2021/09/09 03:45:14;;;;;;;31.50;24.85;;;17.80;99.90;;;;;;5005260;28;25074;-72
2021/09/09 03:47:40;;;;;;;32.72;25.95;;;17.90;99.90;;;;;;5004924;28;25117;-74
2021/09/09 03:50:06;;;;;;;33.55;24.80;;;18.00;99.90;;;;;;5010955;28;25160;-73
2021/09/09 03:52:32;;;;;;;29.75;24.88;;;18.20;99.90;;;;;;5013173;28;25137;-73
2021/09/09 03:54:58;;;;;;;33.45;26.88;;;18.10;99.90;;;;;;5011427;28;25070;-74
2021/09/09 03:57:24;;;;;;;35.38;29.15;;;18.00;99.90;;;;;;5013902;28;25063;-73
2021/09/09 03:59:50;;;;;;;36.75;28.02;;;17.80;99.90;;;;;;5004745;28;25099;-75
2021/09/09 04:02:17;;;;;;;34.75;27.88;;;17.70;99.90;;;;;;5016727;28;25071;-71
2021/09/09 04:04:45;;;;;;;30.17;24.58;;;17.80;99.90;;;;;;5018148;28;25066;-71
2021/09/09 04:07:11;;;;;;;36.83;27.55;;;17.80;99.90;;;;;;5026127;28;25073;-71
2021/09/09 04:09:38;;;;;;;36.72;26.75;;;17.90;99.90;;;;;;5030716;28;25076;-70
2021/09/09 04:12:05;;;;;;;33.83;27.33;;;17.80;99.90;;;;;;5030716;28;25044;-71
2021/09/09 04:14:32;;;;;;;30.90;25.67;;;17.70;99.90;;;;;;5033215;28;25082;-70
2021/09/09 04:16:58;;;;;;;32.95;26.08;;;17.70;99.90;;;;;;5035494;28;25109;-71
2021/09/09 04:19:24;;;;;;;32.15;25.30;;;17.80;99.90;;;;;;5029240;28;25053;-71
2021/09/09 04:21:52;;;;;;;29.38;25.70;;;17.90;99.90;;;;;;5027294;28;25084;-71
2021/09/09 04:24:20;;;;;;;31.80;26.23;;;17.80;99.90;;;;;;5024285;28;25083;-70
2021/09/09 04:26:46;;;;;;;31.73;26.08;;;17.90;99.90;;;;;;5028249;28;25074;-71
2021/09/09 04:29:12;;;;;;;30.50;25.20;;;17.80;99.90;;;;;;5031346;28;25072;-70
2021/09/09 04:31:37;;;;;;;31.42;25.73;;;17.80;99.90;;;;;;5020606;28;25065;-71
2021/09/09 04:34:03;;;;;;;29.98;26.73;;;17.90;99.90;;;;;;5012682;28;25067;-70
2021/09/09 04:36:28;;;;;;;35.10;25.50;;;17.80;99.90;;;;;;5035511;28;25086;-69
2021/09/09 04:38:54;;;;;;;38.42;26.55;;;17.70;99.90;;;;;;5033877;28;25055;-70
2021/09/09 04:41:22;;;;;;;33.92;26.75;;;17.60;99.90;;;;;;5035947;28;25067;-70
2021/09/09 04:43:50;;;;;;;34.55;27.45;;;17.50;99.90;;;;;;5035818;28;25085;-72
2021/09/09 04:46:16;;;;;;;35.50;26.40;;;17.50;99.90;;;;;;5031383;28;25088;-70
2021/09/09 04:48:43;;;;;;;32.72;25.95;;;17.50;99.90;;;;;;5027919;28;25111;-70
2021/09/09 04:51:08;;;;;;;35.00;26.48;;;17.40;99.90;;;;;;5021514;28;25084;-71
2021/09/09 04:53:35;;;;;;;34.38;27.98;;;17.40;99.90;;;;;;5034070;28;25072;-72
2021/09/09 04:56:01;;;;;;;35.03;26.05;;;17.40;99.90;;;;;;5026627;28;25062;-71
2021/09/09 04:58:27;;;;;;;34.22;27.13;;;17.30;99.90;;;;;;5024221;28;25080;-72
2021/09/09 05:00:53;;;;;;;33.95;28.02;;;17.30;99.90;;;;;;5021502;28;25050;-72
2021/09/09 05:03:20;;;;;;;37.88;28.35;;;17.30;99.90;;;;;;5011297;28;25082;-71
2021/09/09 05:05:46;;;;;;;34.55;26.63;;;17.20;99.90;;;;;;5011067;28;25109;-71
2021/09/09 05:08:12;;;;;;;34.90;26.35;;;17.20;99.90;;;;;;5008760;28;25114;-71
2021/09/09 05:10:37;;;;;;;35.05;27.83;;;17.20;99.90;;;;;;5007423;28;25057;-69
2021/09/09 05:13:03;;;;;;;31.13;27.05;;;17.20;99.90;;;;;;5008365;28;25064;-71
2021/09/09 05:15:28;;;;;;;34.45;27.50;;;17.10;99.90;;;;;;5011636;28;25125;-71
2021/09/09 05:17:54;;;;;;;35.70;27.83;;;17.10;99.90;;;;;;5007683;28;25058;-71
2021/09/09 05:20:21;;;;;;;36.10;27.67;;;17.10;99.90;;;;;;5017590;28;25149;-71
2021/09/09 05:22:48;;;;;;;32.60;27.25;;;17.10;99.90;;;;;;5014460;28;25055;-73
2021/09/09 05:25:14;;;;;;;33.08;27.10;;;17.20;99.90;;;;;;5013780;28;25061;-72
2021/09/09 05:27:40;;;;;;;39.13;26.58;;;17.30;99.90;;;;;;5014607;28;25084;-72
2021/09/09 05:30:07;;;;;;;37.17;24.85;;;17.30;99.90;;;;;;5008361;28;25048;-71
2021/09/09 05:32:33;;;;;;;32.60;25.80;;;17.40;99.90;;;;;;5005957;28;25066;-73
2021/09/09 05:35:01;;;;;;;34.28;26.73;;;17.40;99.90;;;;;;5010931;28;25081;-71
2021/09/09 05:37:27;;;;;;;39.85;27.73;;;17.50;99.90;;;;;;5004534;28;25089;-72
2021/09/09 05:39:55;;;;;;;32.10;26.55;;;17.40;99.90;;;;;;5000961;28;25165;-72
2021/09/09 05:42:20;;;;;;;35.05;27.20;;;17.40;99.90;;;;;;5015031;28;25086;-72
2021/09/09 05:44:48;;;;;;;30.92;26.08;;;17.30;99.90;;;;;;4995360;28;25088;-73
2021/09/09 05:47:14;;;;;;;32.97;25.58;;;17.30;99.90;;;;;;5005745;28;25131;-72
2021/09/09 05:49:40;;;;;;;31.30;25.27;;;17.40;99.90;;;;;;5009763;28;25111;-72
2021/09/09 05:52:06;;;;;;;33.33;27.33;;;17.40;99.90;;;;;;5011305;28;25058;-71
2021/09/09 05:54:32;;;;;;;32.08;27.05;;;17.40;99.90;;;;;;5007249;28;25106;-73
2021/09/09 05:56:59;;;;;;;35.15;26.23;;;17.40;99.90;;;;;;5008839;28;25109;-74
2021/09/09 05:59:25;;;;;;;33.38;26.80;;;17.50;99.90;;;;;;5003948;28;25067;-71
2021/09/09 06:01:52;;;;;;;38.58;27.80;;;17.60;99.90;;;;;;5008772;28;25076;-71
2021/09/09 06:04:19;;;;;;;34.67;27.00;;;17.80;99.90;;;;;;5004562;28;25077;-71
2021/09/09 06:06:45;;;;;;;34.70;27.15;;;17.70;99.90;;;;;;5009723;28;25109;-71
2021/09/09 06:09:11;;;;;;;35.55;26.33;;;17.70;99.90;;;;;;5015134;28;25121;-72
2021/09/09 06:11:38;;;;;;;39.50;27.73;;;17.70;99.90;;;;;;5011835;28;25060;-72
2021/09/09 06:14:05;;;;;;;34.35;26.23;;;17.70;99.90;;;;;;5018720;28;25149;-72
2021/09/09 06:16:31;;;;;;;34.88;26.20;;;17.80;99.90;;;;;;5019705;28;25068;-71
2021/09/09 06:18:57;;;;;;;32.47;25.58;;;17.90;99.90;;;;;;5014476;28;25063;-71
2021/09/09 06:21:24;;;;;;;37.25;25.58;;;18.10;99.90;;;;;;5015049;28;25058;-71
2021/09/09 06:23:51;;;;;;;35.00;26.67;;;18.30;99.90;;;;;;5016946;28;25076;-73
2021/09/09 06:26:18;;;;;;;32.88;26.88;;;18.30;99.90;;;;;;5016550;28;25076;-70
2021/09/09 06:28:44;;;;;;;35.28;25.45;;;18.30;99.90;;;;;;5014706;28;25087;-70
2021/09/09 06:31:10;;;;;;;34.38;26.63;;;18.30;99.90;;;;;;5014785;28;25092;-72
2021/09/09 06:33:35;;;;;;;28.75;25.10;;;18.30;99.90;;;;;;5002750;28;25086;-72
2021/09/09 06:36:04;;;;;;;32.05;24.67;;;18.30;99.90;;;;;;5026624;28;25110;-70
2021/09/09 06:38:35;;;;;;;34.38;25.67;;;18.40;99.90;;;;;;5013375;28;25053;-71
2021/09/09 06:41:01;;;;;;;32.50;27.60;;;18.30;99.90;;;;;;5020462;28;25052;-72
2021/09/09 06:43:27;;;;;;;34.42;26.65;;;18.30;99.90;;;;;;5033372;28;25096;-71
2021/09/09 06:45:53;;;;;;;34.47;26.10;;;18.20;99.90;;;;;;5030241;28;25079;-70
2021/09/09 06:48:32;;;;;;;29.65;24.88;;;18.20;99.90;;;;;;5033356;28;25065;-70
2021/09/09 06:51:03;;;;;;;32.75;24.65;;;18.30;99.90;;;;;;5030892;28;25047;-71
2021/09/09 06:53:31;;;;;;;29.70;24.77;;;18.30;99.90;;;;;;5014978;28;25074;-73
2021/09/09 06:55:58;;;;;;;31.23;24.30;;;18.30;99.90;;;;;;5028040;28;25103;-72
2021/09/09 06:58:25;;;;;;;28.60;22.98;;;18.40;99.90;;;;;;5014911;28;25103;-71
2021/09/09 07:00:50;;;;;;;30.02;23.60;;;18.60;99.90;;;;;;5015804;28;25081;-71
2021/09/09 07:03:17;;;;;;;35.00;23.50;;;18.70;99.90;;;;;;5022024;28;25497;-71
2021/09/09 07:05:43;;;;;;;32.63;23.27;;;18.70;99.90;;;;;;5033524;28;25075;-73
2021/09/09 07:08:08;;;;;;;29.67;22.98;;;18.80;99.90;;;;;;5030823;28;25071;-72
2021/09/09 07:10:36;;;;;;;27.73;21.90;;;18.80;99.90;;;;;;5017242;28;25103;-72
2021/09/09 07:13:02;;;;;;;29.13;21.33;;;18.90;99.90;;;;;;5019238;28;25415;-71
2021/09/09 07:15:27;;;;;;;27.27;20.10;;;19.00;99.90;;;;;;5019707;28;25070;-72
2021/09/09 07:17:54;;;;;;;25.42;20.75;;;19.20;99.90;;;;;;5023225;28;25063;-72
2021/09/09 07:20:19;;;;;;;31.23;23.83;;;19.20;99.90;;;;;;5019508;28;25076;-71
2021/09/09 07:22:45;;;;;;;28.75;22.17;;;19.30;99.90;;;;;;5018342;28;25076;-70
2021/09/09 07:25:11;;;;;;;29.55;22.35;;;19.40;99.90;;;;;;5008416;28;25496;-71
2021/09/09 07:27:37;;;;;;;31.52;23.20;;;19.40;99.90;;;;;;5008316;28;25073;-74
2021/09/09 07:30:04;;;;;;;26.85;22.00;;;19.60;99.90;;;;;;5009483;28;25064;-75
2021/09/09 07:32:30;;;;;;;27.45;23.48;;;19.60;99.90;;;;;;5006260;28;25146;-72
2021/09/09 07:34:56;;;;;;;31.55;22.55;;;19.80;99.90;;;;;;4996199;28;25076;-72
2021/09/09 07:37:21;;;;;;;32.55;21.95;;;19.80;99.90;;;;;;5004982;28;25073;-71
2021/09/09 07:39:47;;;;;;;28.48;23.17;;;20.00;99.90;;;;;;5008739;28;25055;-72
2021/09/09 07:42:13;;;;;;;29.77;23.98;;;20.10;99.90;;;;;;5006739;28;25084;-73
2021/09/09 07:44:38;;;;;;;28.52;23.48;;;20.10;99.90;;;;;;5006704;28;25067;-72
2021/09/09 07:47:05;;;;;;;30.58;23.65;;;20.10;99.90;;;;;;5007025;28;25137;-72
2021/09/09 07:49:31;;;;;;;32.80;24.45;;;20.20;99.90;;;;;;5008712;28;25069;-71
2021/09/09 07:51:57;;;;;;;27.55;23.10;;;20.30;99.90;;;;;;5007779;28;25073;-71
2021/09/09 07:54:22;;;;;;;29.30;23.55;;;20.30;99.90;;;;;;5007499;28;25055;-71
2021/09/09 07:56:48;;;;;;;33.30;23.23;;;20.30;99.90;;;;;;5008177;28;25058;-71
2021/09/09 07:59:15;;;;;;;31.52;24.13;;;20.50;99.90;;;;;;5008101;28;25071;-73
2021/09/09 08:01:40;;;;;;;32.90;23.58;;;20.60;99.90;;;;;;5011528;28;25129;-73
2021/09/09 08:04:06;;;;;;;35.15;23.02;;;20.50;99.90;;;;;;5010544;28;25138;-71
2021/09/09 08:06:32;;;;;;;26.15;22.55;;;20.60;99.90;;;;;;5002687;28;25102;-71
2021/09/09 08:08:58;;;;;;;33.83;23.95;;;20.70;99.90;;;;;;5011389;28;25066;-74
2021/09/09 08:11:24;;;;;;;32.20;23.80;;;20.90;99.90;;;;;;5010494;28;25141;-72
2021/09/09 08:13:52;;;;;;;37.70;24.55;;;21.10;99.90;;;;;;5009970;28;25127;-70
2021/09/09 08:16:19;;;;;;;33.85;23.70;;;21.30;99.90;;;;;;5008791;28;25105;-71
2021/09/09 08:18:44;;;;;;;38.67;22.00;;;21.40;99.90;;;;;;5008079;28;25073;-72
2021/09/09 08:21:10;;;;;;;34.38;22.13;;;21.60;99.90;;;;;;5011584;28;25053;-71
2021/09/09 08:23:37;;;;;;;29.55;23.90;;;21.80;99.90;;;;;;5008849;28;25061;-71
2021/09/09 08:26:03;;;;;;;34.50;24.05;;;21.80;99.90;;;;;;5009980;28;25080;-71
2021/09/09 08:28:29;;;;;;;30.13;22.55;;;22.00;99.90;;;;;;5008875;28;25129;-72
2021/09/09 08:30:54;;;;;;;31.00;22.92;;;22.30;99.90;;;;;;5005769;28;25059;-70
2021/09/09 08:33:20;;;;;;;29.77;21.55;;;22.50;99.90;;;;;;4996790;28;25058;-72
2021/09/09 08:35:45;;;;;;;34.65;24.10;;;22.50;99.90;;;;;;5008563;28;25061;-71
2021/09/09 08:38:11;;;;;;;30.83;23.10;;;22.50;99.90;;;;;;5009487;28;25053;-72
2021/09/09 08:40:38;;;;;;;34.28;23.40;;;22.40;99.90;;;;;;5009502;28;25083;-73
2021/09/09 08:43:06;;;;;;;28.38;22.40;;;22.40;99.90;;;;;;5010761;28;25088;-71
2021/09/09 08:45:32;;;;;;;27.00;21.83;;;22.40;99.90;;;;;;5005233;28;25074;-72
2021/09/09 08:48:03;;;;;;;24.60;21.52;;;22.70;99.90;;;;;;5009634;28;25111;-73
2021/09/09 08:50:31;;;;;;;30.50;21.97;;;23.20;99.90;;;;;;5004788;28;25061;-72
2021/09/09 08:52:59;;;;;;;31.10;23.75;;;23.40;99.90;;;;;;5010659;28;25138;-72
2021/09/09 08:55:25;;;;;;;30.38;23.95;;;23.40;99.90;;;;;;5005450;28;25091;-72
2021/09/09 08:57:50;;;;;;;30.80;24.23;;;23.40;99.90;;;;;;5006069;28;25109;-72
2021/09/09 09:00:16;;;;;;;29.98;23.95;;;23.60;99.90;;;;;;5006242;28;25067;-74
2021/09/09 09:02:53;;;;;;;31.67;24.23;;;23.60;99.90;;;;;;5007710;28;25174;-73
2021/09/09 09:05:20;;;;;;;29.05;23.15;;;24.00;99.90;;;;;;5006049;28;25113;-73
2021/09/09 09:07:46;;;;;;;30.55;22.90;;;24.10;99.90;;;;;;5009349;28;25060;-73
2021/09/09 09:10:11;;;;;;;29.50;23.60;;;24.40;99.90;;;;;;5010256;28;25075;-71
2021/09/09 09:12:47;;;;;;;29.52;23.10;;;24.60;99.90;;;;;;5006582;28;25126;-72
2021/09/09 09:15:22;;;;;;;29.42;22.48;;;24.50;99.90;;;;;;5028365;28;25065;-73
2021/09/09 09:18:09;;;;;;;28.15;22.35;;;24.50;99.90;;;;;;5032145;28;25058;-71
2021/09/09 09:20:52;;;;;;;29.55;21.60;;;24.40;99.90;;;;;;5020654;28;25078;-71
2021/09/09 09:23:24;;;;;;;37.65;22.50;;;24.40;99.90;;;;;;5006852;28;25077;-69
2021/09/09 09:25:54;;;;;;;;;;;24.40;99.90;;;;;;5008039;28;25077;-72
2021/09/09 09:28:42;;;;;;;28.50;22.25;;;24.10;99.90;;;;;;5016192;28;25061;-74
2021/09/09 09:31:12;;;;;;;27.60;22.77;;;24.10;99.90;;;;;;5006827;28;25070;-72
2021/09/09 09:33:50;;;;;;;26.35;20.83;;;24.00;99.90;;;;;;4991029;28;25060;-72
2021/09/09 09:36:22;;;;;;;25.13;21.73;;;23.80;99.90;;;;;;5007835;28;25092;-73
2021/09/09 09:38:49;;;;;;;28.13;21.42;;;23.80;99.90;;;;;;5005689;28;25086;-74
2021/09/09 09:41:18;;;;;;;31.65;22.48;;;23.90;99.90;;;;;;5004195;28;25055;-73
2021/09/09 09:43:56;;;;;;;33.30;21.02;;;24.00;99.90;;;;;;5004788;28;25050;-73
2021/09/09 09:46:25;;;;;;;28.65;20.33;;;24.30;99.90;;;;;;5008371;28;25050;-72
2021/09/09 09:48:51;;;;;;;30.30;20.55;;;24.10;99.90;;;;;;5004143;28;25060;-73
2021/09/09 09:51:39;;;;;;;21.95;19.55;;;24.10;99.90;;;;;;5005354;28;25076;-74
2021/09/09 09:54:13;;;;;;;26.33;19.20;;;24.20;99.90;;;;;;5008373;28;25063;-72
2021/09/09 09:56:41;;;;;;;20.10;17.77;;;24.30;99.90;;;;;;5004478;28;25138;-72
2021/09/09 09:59:07;;;;;;;25.70;19.88;;;24.30;99.90;;;;;;5003733;28;25076;-73
2021/09/09 10:01:35;;;;;;;26.40;17.92;;;24.30;99.90;;;;;;5008209;28;25073;-73
2021/09/09 10:04:03;;;;;;;24.70;19.33;;;24.20;99.90;;;;;;4999918;28;25129;-73
2021/09/09 10:06:31;;;;;;;22.55;17.85;;;24.40;99.90;;;;;;5008945;28;25060;-74
2021/09/09 10:08:56;;;;;;;26.60;18.63;;;24.50;99.90;;;;;;5008526;28;25057;-72
2021/09/09 10:11:22;;;;;;;25.70;18.75;;;24.50;99.90;;;;;;5006100;28;25059;-72
2021/09/09 10:13:48;;;;;;;25.90;21.20;;;24.50;99.90;;;;;;5005304;28;25074;-73
2021/09/09 10:16:16;;;;;;;28.85;20.63;;;24.20;99.90;;;;;;5007620;28;25050;-73
2021/09/09 10:18:43;;;;;;;29.90;20.75;;;24.10;99.90;;;;;;5002481;28;25066;-72
2021/09/09 10:21:09;;;;;;;30.58;21.00;;;24.00;99.90;;;;;;5007277;28;25060;-72
2021/09/09 10:23:34;;;;;;;29.75;22.40;;;24.00;99.90;;;;;;5009496;28;25060;-73
2021/09/09 10:26:01;;;;;;;27.15;19.50;;;24.10;99.90;;;;;;5010200;28;25097;-72
2021/09/09 10:28:38;;;;;;;24.83;20.15;;;24.20;99.90;;;;;;5008116;28;25179;-74
2021/09/09 10:31:18;;;;;;;30.67;20.52;;;24.20;99.90;;;;;;4995943;28;25128;-73
2021/09/09 10:33:46;;;;;;;25.00;20.38;;;24.30;99.90;;;;;;5009631;28;25165;-73
2021/09/09 10:36:44;;;;;;;26.23;21.02;;;24.30;99.90;;;;;;5009162;28;25097;-74
2021/09/09 10:39:21;;;;;;;33.05;22.95;;;24.30;99.90;;;;;;5003243;28;25166;-73
2021/09/09 10:41:47;;;;;;;23.45;19.42;;;24.40;99.90;;;;;;4995007;28;25101;-72
2021/09/09 10:44:13;;;;;;;23.30;19.33;;;24.60;99.90;;;;;;4989516;28;25128;-73
2021/09/09 10:46:41;;;;;;;22.25;19.05;;;24.70;99.90;;;;;;4989297;28;25078;-72
2021/09/09 10:49:28;;;;;;;53.63;23.00;;;24.90;99.90;;;;;;5005606;28;25091;-72
2021/09/09 10:52:05;;;;;;;26.73;21.33;;;24.80;99.90;;;;;;4997050;28;25088;-74
2021/09/09 10:54:31;;;;;;;26.65;20.35;;;25.00;99.90;;;;;;5003388;28;25066;-72
2021/09/09 10:57:13;;;;;;;25.65;20.83;;;25.00;99.90;;;;;;5006383;28;25057;-73
2021/09/09 10:59:49;;;;;;;32.17;21.63;;;25.10;99.90;;;;;;5009020;28;25063;-74
2021/09/09 11:02:16;;;;;;;28.85;22.05;;;25.10;99.90;;;;;;5008988;28;25054;-71
2021/09/09 11:04:42;;;;;;;30.20;19.20;;;25.10;99.90;;;;;;4999529;28;25052;-74
2021/09/09 11:07:27;;;;;;;28.92;21.00;;;25.20;99.90;;;;;;5017496;28;25074;-72
2021/09/09 11:09:59;;;;;;;27.38;21.08;;;25.30;99.90;;;;;;5020995;28;25101;-72
2021/09/09 11:12:26;;;;;;;28.42;22.42;;;25.30;99.90;;;;;;5027579;28;25073;-71
2021/09/09 11:14:51;;;;;;;27.15;21.75;;;25.20;99.90;;;;;;5022624;28;25054;-71
2021/09/09 11:17:17;;;;;;;32.05;20.13;;;25.20;99.90;;;;;;5023114;28;25058;-75
2021/09/09 11:19:43;;;;;;;23.88;19.30;;;25.20;99.90;;;;;;5027111;28;25077;-74
2021/09/09 11:22:10;;;;;;;28.50;19.63;;;25.30;99.90;;;;;;5026477;28;25084;-74
2021/09/09 11:24:35;;;;;;;31.67;20.08;;;25.60;99.90;;;;;;5030036;28;25061;-73
2021/09/09 11:27:10;;;;;;;25.55;18.00;;;25.80;99.90;;;;;;5023308;28;25075;-74
2021/09/09 11:29:37;;;;;;;24.15;17.67;;;26.00;99.90;;;;;;5026652;28;25088;-74
2021/09/09 11:32:04;;;;;;;21.60;15.85;;;26.00;99.90;;;;;;5031890;28;25077;-74
2021/09/09 11:34:31;;;;;;;25.88;15.43;;;26.00;99.90;;;;;;5033984;28;25045;-70
2021/09/09 11:37:02;;;;;;;18.13;13.25;;;25.80;99.90;;;;;;5035057;28;25078;-74
2021/09/09 11:39:30;;;;;;;18.70;15.15;;;25.50;99.90;;;;;;5023305;28;25085;-77
2021/09/09 11:41:56;;;;;;;24.23;17.88;;;25.50;99.90;;;;;;5035908;28;25102;-73
2021/09/09 11:44:26;;;;;;;19.05;17.00;;;25.40;99.90;;;;;;5022580;28;25054;-76
2021/09/09 11:46:52;;;;;;;19.77;14.73;;;25.20;99.90;;;;;;5023966;28;25101;-74
2021/09/09 11:49:22;;;;;;;16.80;13.25;;;25.50;99.90;;;;;;5014873;28;25050;-75
2021/09/09 11:51:50;;;;;;;16.38;13.18;;;25.80;99.90;;;;;;5027339;28;25090;-78
2021/09/09 11:54:26;;;;;;;18.38;14.02;;;26.30;99.90;;;;;;5033087;28;25122;-75
2021/09/09 11:57:05;;;;;;;20.35;16.90;;;26.40;99.90;;;;;;5009063;28;25086;-74
2021/09/09 11:59:32;;;;;;;21.52;16.92;;;26.00;99.90;;;;;;5008744;28;25071;-74
2021/09/09 12:02:21;;;;;;;20.25;15.70;;;26.10;99.90;;;;;;5010804;28;25063;-73
2021/09/09 12:04:53;;;;;;;23.38;19.08;;;26.70;99.90;;;;;;5012927;28;25065;-76
2021/09/09 12:07:25;;;;;;;27.42;21.40;;;27.40;99.90;;;;;;5013439;28;25155;-74
2021/09/09 12:10:10;;;;;;;27.00;19.90;;;27.80;99.90;;;;;;5015426;28;25067;-72
2021/09/09 12:12:36;;;;;;;23.83;19.17;;;27.70;99.90;;;;;;5015558;28;25059;-73
2021/09/09 12:15:08;;;;;;;24.15;16.83;;;27.50;99.90;;;;;;5009842;28;25134;-76
2021/09/09 12:17:34;;;;;;;20.42;16.88;;;27.70;99.90;;;;;;5013458;28;25078;-74
2021/09/09 12:20:04;;;;;;;25.92;17.77;;;27.90;99.90;;;;;;5010599;28;25076;-74
2021/09/09 12:22:48;;;;;;;24.83;18.60;;;27.60;99.90;;;;;;5015456;28;25070;-74
2021/09/09 12:25:17;;;;;;;24.45;17.33;;;27.20;99.90;;;;;;5015679;28;25065;-75
2021/09/09 12:28:01;;;;;;;27.00;18.33;;;27.20;99.90;;;;;;5015801;28;25069;-76
2021/09/09 12:30:36;;;;;;;28.80;15.93;;;27.10;99.90;;;;;;5035448;28;25047;-75